Time;durP1;ratioP1;P1;durP2;ratioP2;P2;SDS_P1;SDS_P2;PMS_P1;PMS_P2;Temp;Humidity;BMP_temperature;BMP_pressure;BME280_temperature;BME280_humidity;BME280_pressure;Samples;Min_cycle;Max_cycle;Signal;HPM_P1;HPM_P2
2021/12/27 00:00:10;;;;;;;170.85;7.00;;;;;;;6.41;82.66;98390.28;4963705;28;20049;-50
2021/12/27 00:02:38;;;;;;;168.10;6.70;;;;;;;6.42;83.49;98391.97;4960969;28;20055;-49
2021/12/27 00:05:05;;;;;;;178.52;7.35;;;;;;;6.41;84.28;98390.28;4965142;28;20290;-50
2021/12/27 00:07:32;;;;;;;128.60;6.55;;;;;;;6.41;84.38;98395.41;4957659;28;20050;-52
2021/12/27 00:10:00;;;;;;;150.65;7.28;;;;;;;6.41;84.02;98395.41;4964443;28;20054;-51
2021/12/27 00:12:27;;;;;;;146.57;7.15;;;;;;;6.41;83.37;98387.72;4960437;28;20055;-50
2021/12/27 00:14:54;;;;;;;145.02;6.82;;;;;;;6.42;83.84;98386.81;4962825;28;20051;-51
2021/12/27 00:17:21;;;;;;;133.23;7.03;;;;;;;6.42;83.37;98391.13;4964889;28;20114;-53
2021/12/27 00:19:47;;;;;;;162.02;8.13;;;;;;;6.41;84.41;98382.56;4959563;28;20059;-52
2021/12/27 00:22:14;;;;;;;98.70;5.63;;;;;;;6.42;83.46;98381.69;4962282;28;20165;-54
2021/12/27 00:24:46;;;;;;;83.07;5.95;;;;;;;6.43;83.46;98373.09;4966302;28;20051;-50
2021/12/27 00:27:16;;;;;;;110.65;6.63;;;;;;;6.42;82.88;98368.81;4963765;28;20066;-54
2021/12/27 00:29:45;;;;;;;151.32;6.55;;;;;;;6.44;83.11;98363.66;4967712;28;20042;-53
2021/12/27 00:32:12;;;;;;;113.25;6.32;;;;;;;6.42;83.82;98355.97;4966752;28;20055;-48
2021/12/27 00:34:38;;;;;;;124.60;6.93;;;;;;;6.41;84.46;98346.56;4962606;28;20061;-53
2021/12/27 00:37:07;;;;;;;141.48;6.85;;;;;;;6.40;84.31;98342.28;4963272;28;20062;-50
2021/12/27 00:39:34;;;;;;;86.00;5.15;;;;;;;6.40;82.96;98332.00;4967589;28;20438;-51
2021/12/27 00:42:01;;;;;;;110.65;6.10;;;;;;;6.40;82.52;98326.88;4965643;28;20066;-47
2021/12/27 00:44:28;;;;;;;147.30;6.80;;;;;;;6.37;83.56;98326.03;4964503;28;20101;-52
2021/12/27 00:46:55;;;;;;;114.43;5.38;;;;;;;6.33;83.75;98330.38;4959851;28;20067;-49
2021/12/27 00:49:22;;;;;;;135.52;7.38;;;;;;;6.32;83.37;98323.53;4969263;28;20129;-53
2021/12/27 00:51:49;;;;;;;88.45;4.15;;;;;;;6.33;82.93;98320.09;4963921;28;20057;-54
2021/12/27 00:54:16;;;;;;;50.08;3.22;;;;;;;6.31;83.44;98326.97;4965667;28;20053;-49
2021/12/27 00:56:44;;;;;;;85.82;4.97;;;;;;;6.32;83.86;98331.25;4966786;28;20570;-48
2021/12/27 00:59:11;;;;;;;96.03;5.03;;;;;;;6.33;83.89;98325.25;4963841;28;20039;-54
2021/12/27 01:01:39;;;;;;;104.53;5.38;;;;;;;6.34;84.17;98321.78;4967841;28;20043;-57
2021/12/27 01:04:06;;;;;;;97.38;4.72;;;;;;;6.31;82.81;98321.81;4963678;28;20039;-50
2021/12/27 01:06:33;;;;;;;79.20;4.15;;;;;;;6.26;84.26;98329.63;4966322;28;20061;-50
2021/12/27 01:09:00;;;;;;;84.10;4.13;;;;;;;6.17;84.01;98322.88;4961823;28;20079;-54
2021/12/27 01:11:40;;;;;;;58.53;3.55;;;;;;;6.08;82.55;98320.38;4968294;28;20077;-52
2021/12/27 01:14:15;;;;;;;70.68;3.42;;;;;;;6.07;83.71;98316.13;4966093;28;20042;-54
2021/12/27 01:16:44;;;;;;;89.20;4.00;;;;;;;6.06;83.79;98314.44;4965197;28;20134;-50
2021/12/27 01:19:12;;;;;;;109.50;4.53;;;;;;;6.01;83.80;98322.16;4964715;28;20535;-52
2021/12/27 01:21:40;;;;;;;108.22;4.38;;;;;;;5.98;83.93;98319.63;4965129;28;20134;-51
2021/12/27 01:24:08;;;;;;;106.75;4.60;;;;;;;5.94;82.96;98312.81;4962976;28;20051;-54
2021/12/27 01:26:35;;;;;;;141.50;5.60;;;;;;;5.92;82.96;98310.25;4969056;28;20062;-51
2021/12/27 01:29:07;;;;;;;139.32;5.22;;;;;;;5.90;83.79;98306.03;4968420;28;20054;-53
2021/12/27 01:31:33;;;;;;;89.50;3.47;;;;;;;5.90;84.23;98312.03;4971765;28;20376;-51
2021/12/27 01:34:00;;;;;;;71.95;3.38;;;;;;;5.92;83.85;98315.41;4967814;28;20244;-53
2021/12/27 01:36:31;;;;;;;33.15;3.03;;;;;;;5.97;83.79;98306.78;4968342;28;20537;-49
2021/12/27 01:38:59;;;;;;;53.90;2.95;;;;;;;6.03;84.24;98317.00;4964975;28;20557;-53
2021/12/27 01:41:26;;;;;;;56.83;2.85;;;;;;;6.02;83.79;98315.31;4969003;28;20501;-55
2021/12/27 01:43:54;;;;;;;52.55;3.53;;;;;;;6.04;83.88;98311.03;4967607;28;20081;-54
2021/12/27 01:46:23;;;;;;;74.95;4.03;;;;;;;6.04;83.88;98318.72;4968093;28;21484;-51
2021/12/27 01:48:56;;;;;;;42.72;2.70;;;;;;;6.00;82.69;98312.75;4966030;28;20059;-49
2021/12/27 01:51:27;;;;;;;60.85;3.20;;;;;;;6.02;82.87;98315.31;4968276;28;20490;-52
2021/12/27 01:53:54;;;;;;;67.72;3.85;;;;;;;6.02;84.28;98305.03;4967186;28;20562;-49
2021/12/27 01:56:22;;;;;;;74.35;4.35;;;;;;;6.01;83.38;98319.59;4968158;28;20529;-54
2021/12/27 01:58:51;;;;;;;104.72;4.97;;;;;;;6.01;84.33;98316.19;4964512;28;20142;-54
2021/12/27 02:01:20;;;;;;;106.22;5.35;;;;;;;6.01;82.76;98309.31;4963853;28;20053;-52
2021/12/27 02:03:49;;;;;;;78.50;4.05;;;;;;;6.02;83.18;98307.59;4967306;28;20062;-53
2021/12/27 02:06:16;;;;;;;126.75;5.47;;;;;;;6.02;84.08;98302.47;4962406;28;20051;-51
2021/12/27 02:08:44;;;;;;;129.65;5.38;;;;;;;6.02;84.50;98300.72;4966953;28;20082;-53
2021/12/27 02:11:12;;;;;;;99.55;4.75;;;;;;;6.05;83.93;98294.75;4966354;28;20515;-49
2021/12/27 02:13:43;;;;;;;83.78;4.40;;;;;;;6.03;83.85;98301.59;4966243;28;20062;-51
2021/12/27 02:16:15;;;;;;;73.35;4.28;;;;;;;5.99;84.41;98295.66;4968970;28;20042;-47
2021/12/27 02:18:44;;;;;;;109.85;5.85;;;;;;;5.99;83.75;98294.78;4973860;28;20121;-52
2021/12/27 02:21:11;;;;;;;178.30;6.88;;;;;;;5.94;83.10;98296.56;4945375;29;20046;-53
2021/12/27 02:23:40;;;;;;;130.48;5.70;;;;;;;5.96;82.86;98289.69;4964028;28;20077;-50
2021/12/27 02:26:07;;;;;;;117.63;5.43;;;;;;;5.92;83.00;98289.72;4968979;28;20054;-47
2021/12/27 02:28:34;;;;;;;169.07;6.78;;;;;;;5.88;83.23;98298.31;4965678;28;20578;-50
2021/12/27 02:31:01;;;;;;;80.97;4.68;;;;;;;5.87;83.22;98298.34;4967060;28;20042;-50
2021/12/27 02:33:28;;;;;;;119.97;6.13;;;;;;;5.81;84.30;98296.69;4968953;28;20102;-48
2021/12/27 02:35:58;;;;;;;117.28;5.70;;;;;;;5.80;83.49;98292.44;4964435;28;20117;-54
2021/12/27 02:38:28;;;;;;;159.77;6.13;;;;;;;5.78;84.58;98287.31;4966818;28;20055;-48
2021/12/27 02:40:56;;;;;;;;;;;;;;;5.72;83.48;98283.97;4967945;28;20057;-55
2021/12/27 02:43:26;;;;;;;86.28;4.88;;;;;;;5.75;83.99;98279.63;4968900;28;20358;-50
2021/12/27 02:45:55;;;;;;;;;;;;;;;5.69;83.50;98266.00;4963270;28;20134;-52
2021/12/27 02:48:25;;;;;;;128.25;5.25;;;;;;;5.72;83.27;98264.28;4968715;28;19922;-51
2021/12/27 02:50:53;;;;;;;72.97;4.03;;;;;;;5.74;83.92;98265.09;4968165;28;20522;-50
2021/12/27 02:53:21;;;;;;;190.52;7.85;;;;;;;5.75;83.54;98260.81;4968387;28;20042;-51
2021/12/27 02:55:50;;;;;;;72.50;4.30;;;;;;;5.77;83.32;98257.34;4965766;28;21035;-49
2021/12/27 02:58:17;;;;;;;54.03;3.72;;;;;;;5.73;83.32;98258.25;4967068;28;20050;-49
2021/12/27 03:00:49;;;;;;;97.97;4.18;;;;;;;5.74;83.77;98254.81;4963493;28;20046;-50
2021/12/27 03:03:16;;;;;;;80.38;4.53;;;;;;;5.75;83.50;98265.94;4968859;28;20057;-51
2021/12/27 03:05:45;;;;;;;103.57;4.65;;;;;;;5.75;83.58;98268.53;4967606;28;20050;-46
2021/12/27 03:08:15;;;;;;;85.85;4.13;;;;;;;5.77;83.58;98266.75;4969516;28;20067;-50
2021/12/27 03:10:45;;;;;;;154.15;5.68;;;;;;;5.75;83.20;98260.81;4969063;28;20062;-50
2021/12/27 03:13:23;;;;;;;87.85;4.35;;;;;;;5.75;84.38;98255.69;4967827;28;20050;-51
2021/12/27 03:15:53;;;;;;;90.85;3.53;;;;;;;5.77;83.41;98243.66;4974960;28;20101;-48
2021/12/27 03:18:21;;;;;;;122.32;5.25;;;;;;;5.75;84.57;98240.25;4979517;28;20039;-49
2021/12/27 03:20:49;;;;;;;88.70;4.10;;;;;;;5.74;84.53;98244.53;4967935;28;20091;-54
2021/12/27 03:23:16;;;;;;;145.90;4.72;;;;;;;5.77;84.44;98228.22;4965460;28;20446;-53
2021/12/27 03:25:42;;;;;;;77.70;3.83;;;;;;;5.78;84.03;98222.25;4964273;28;20039;-51
2021/12/27 03:28:09;;;;;;;128.18;4.97;;;;;;;5.80;84.41;98223.06;4970393;28;20042;-49
2021/12/27 03:30:36;;;;;;;75.40;3.38;;;;;;;5.81;83.53;98209.34;4966896;28;20050;-50
2021/12/27 03:33:05;;;;;;;139.70;5.68;;;;;;;5.84;83.40;98206.72;4966368;28;20078;-50
2021/12/27 03:35:38;;;;;;;111.28;4.80;;;;;;;5.88;84.50;98205.81;4966846;28;20829;-46
2021/12/27 03:38:08;;;;;;;114.32;4.50;;;;;;;5.86;83.79;98212.72;4962666;28;20054;-47
2021/12/27 03:40:35;;;;;;;121.25;5.45;;;;;;;5.85;83.46;98207.59;4966237;28;20057;-55
2021/12/27 03:43:03;;;;;;;69.55;3.75;;;;;;;5.82;83.92;98205.06;4967216;28;20438;-53
2021/12/27 03:45:33;;;;;;;53.80;3.10;;;;;;;5.81;83.39;98209.34;4968176;28;20117;-55
2021/12/27 03:48:00;;;;;;;82.88;4.07;;;;;;;5.82;83.31;98202.50;4965314;28;20493;-54
2021/12/27 03:50:27;;;;;;;87.10;5.50;;;;;;;5.83;85.08;98196.47;4966649;28;20089;-50
2021/12/27 03:52:55;;;;;;;117.88;4.90;;;;;;;5.79;84.59;98196.53;4964033;28;20089;-53
2021/12/27 03:55:23;;;;;;;86.35;4.20;;;;;;;5.81;83.91;98193.91;4963694;28;20097;-52
2021/12/27 03:57:56;;;;;;;114.35;5.00;;;;;;;5.80;83.85;98187.09;4966268;28;20077;-50
2021/12/27 04:00:43;;;;;;;106.78;4.43;;;;;;;5.84;83.70;98183.59;4960841;28;20810;-50
2021/12/27 04:03:09;;;;;;;118.90;4.63;;;;;;;5.83;85.11;98179.34;4964978;28;20105;-52
2021/12/27 04:05:36;;;;;;;88.35;4.45;;;;;;;5.81;84.39;98178.50;4967315;28;20047;-50
2021/12/27 04:08:09;;;;;;;110.00;4.78;;;;;;;5.82;84.33;98182.78;4962057;28;20047;-51
2021/12/27 04:10:38;;;;;;;138.82;5.00;;;;;;;5.83;84.84;98183.63;4959610;28;20055;-50
2021/12/27 04:13:07;;;;;;;71.65;4.10;;;;;;;5.82;84.34;98177.66;4968767;28;20129;-50
2021/12/27 04:15:34;;;;;;;92.50;4.10;;;;;;;5.83;83.95;98171.63;4963759;28;20042;-50
2021/12/27 04:18:02;;;;;;;123.40;4.82;;;;;;;5.80;84.48;98171.69;4962439;28;20087;-49
2021/12/27 04:20:29;;;;;;;91.72;3.97;;;;;;;5.85;85.09;98174.19;4963952;28;20477;-56
2021/12/27 04:22:55;;;;;;;110.40;3.95;;;;;;;5.83;84.90;98181.06;4965558;28;20082;-49
2021/12/27 04:25:23;;;;;;;107.03;4.38;;;;;;;5.88;84.37;98175.00;4968465;28;20055;-47
2021/12/27 04:27:50;;;;;;;76.55;4.05;;;;;;;5.88;84.83;98164.72;4958169;28;20472;-48
2021/12/27 04:30:19;;;;;;;72.93;3.65;;;;;;;5.91;85.05;98180.09;4965630;28;20047;-47
2021/12/27 04:32:46;;;;;;;89.70;4.32;;;;;;;5.95;83.90;98174.91;4961589;28;20609;-52
2021/12/27 04:35:14;;;;;;;78.72;3.00;;;;;;;5.92;83.99;98170.66;4963906;28;20043;-52
2021/12/27 04:37:40;;;;;;;107.68;4.65;;;;;;;5.96;84.01;98166.31;4966379;28;20046;-48
2021/12/27 04:40:10;;;;;;;121.50;4.65;;;;;;;5.96;84.28;98174.91;4965889;28;20094;-52
2021/12/27 04:42:39;;;;;;;123.97;4.47;;;;;;;5.95;84.53;98180.91;4964519;28;20106;-47
2021/12/27 04:45:06;;;;;;;102.90;4.40;;;;;;;5.94;84.92;98173.22;4966345;28;20192;-46
2021/12/27 04:47:33;;;;;;;136.27;5.28;;;;;;;5.95;84.32;98164.63;4964580;28;20050;-50
2021/12/27 04:50:00;;;;;;;112.63;4.97;;;;;;;5.94;84.99;98162.94;4967451;28;20553;-52
2021/12/27 04:52:27;;;;;;;92.20;5.28;;;;;;;5.92;84.88;98155.25;4966743;28;20047;-51
2021/12/27 04:54:53;;;;;;;146.20;6.65;;;;;;;5.90;83.93;98142.44;4967254;28;20113;-51
2021/12/27 04:57:20;;;;;;;135.60;4.90;;;;;;;5.91;85.14;98148.41;4968566;28;20656;-50
2021/12/27 04:59:47;;;;;;;120.60;5.45;;;;;;;5.89;84.29;98143.31;4966246;28;20101;-47
2021/12/27 05:02:13;;;;;;;136.15;5.75;;;;;;;5.92;84.45;98142.41;4969241;28;20110;-46
2021/12/27 05:04:40;;;;;;;117.63;5.25;;;;;;;5.95;84.43;98138.94;4970278;28;20410;-48
2021/12/27 05:07:07;;;;;;;121.60;5.18;;;;;;;5.94;84.44;98132.09;4970181;28;20055;-54
2021/12/27 05:09:33;;;;;;;144.38;5.70;;;;;;;5.91;84.71;98133.84;4969470;28;20057;-47
2021/12/27 05:12:00;;;;;;;121.28;4.70;;;;;;;5.95;85.18;98123.53;4970390;28;20577;-54
2021/12/27 05:14:27;;;;;;;129.95;5.80;;;;;;;5.97;83.86;98116.63;4969366;28;20498;-53
2021/12/27 05:16:54;;;;;;;111.97;4.90;;;;;;;5.97;84.72;98116.63;4971664;28;20047;-54
2021/12/27 05:19:21;;;;;;;115.68;5.68;;;;;;;5.94;85.27;98117.53;4968770;28;20070;-54
2021/12/27 05:21:47;;;;;;;117.63;5.85;;;;;;;5.95;84.14;98108.09;4968937;28;20055;-51
2021/12/27 05:24:14;;;;;;;129.32;6.47;;;;;;;5.95;84.54;98108.09;4966898;28;20050;-54
2021/12/27 05:26:41;;;;;;;112.10;4.80;;;;;;;5.95;84.69;98102.97;4967532;28;20049;-52
2021/12/27 05:29:08;;;;;;;83.40;4.15;;;;;;;5.92;83.96;98107.25;4969044;28;20491;-49
2021/12/27 05:31:35;;;;;;;143.10;6.35;;;;;;;5.93;84.79;98097.84;4969746;28;20038;-47
2021/12/27 05:34:02;;;;;;;124.22;5.30;;;;;;;5.92;84.19;98094.41;4970411;28;20051;-48
2021/12/27 05:36:28;;;;;;;135.45;6.40;;;;;;;5.92;84.15;98084.13;4969685;28;20643;-52
2021/12/27 05:38:55;;;;;;;64.10;3.47;;;;;;;5.91;85.23;98082.44;4967072;28;20546;-52
2021/12/27 05:41:22;;;;;;;103.18;5.13;;;;;;;5.95;85.39;98082.41;4965457;28;20055;-47
2021/12/27 05:43:49;;;;;;;111.63;4.40;;;;;;;5.94;84.68;98080.72;4966496;28;20074;-49
2021/12/27 05:46:15;;;;;;;132.63;6.03;;;;;;;5.96;84.81;98089.22;4965425;28;20543;-49
2021/12/27 05:48:42;;;;;;;162.10;7.40;;;;;;;5.96;84.64;98084.09;4970697;28;20046;-49
2021/12/27 05:51:08;;;;;;;80.38;4.00;;;;;;;5.92;85.27;98075.59;4968206;28;20588;-50
2021/12/27 05:53:35;;;;;;;118.32;5.32;;;;;;;5.88;84.57;98077.34;4967314;28;20107;-49
2021/12/27 05:56:02;;;;;;;110.68;5.78;;;;;;;5.85;84.77;98072.28;4968550;28;20303;-55
2021/12/27 05:58:29;;;;;;;95.97;5.50;;;;;;;5.89;84.78;98073.94;4967492;28;20141;-54
2021/12/27 06:00:55;;;;;;;98.72;4.65;;;;;;;5.87;84.86;98065.38;4966984;28;20051;-46
2021/12/27 06:03:22;;;;;;;132.57;5.07;;;;;;;5.88;85.74;98061.94;4967848;28;20481;-51
2021/12/27 06:05:49;;;;;;;148.82;6.43;;;;;;;5.87;84.52;98060.25;4970355;28;20038;-56
2021/12/27 06:08:16;;;;;;;119.03;6.03;;;;;;;5.88;85.21;98054.22;4969510;28;20121;-54
2021/12/27 06:10:42;;;;;;;124.15;5.38;;;;;;;5.89;84.25;98053.38;4966163;28;20054;-49
2021/12/27 06:13:09;;;;;;;160.20;6.53;;;;;;;5.90;85.00;98051.63;4969043;28;20058;-53
2021/12/27 06:15:36;;;;;;;129.38;6.53;;;;;;;5.90;85.74;98049.91;4969598;28;20042;-52
2021/12/27 06:18:03;;;;;;;129.50;6.20;;;;;;;5.92;85.22;98047.31;4967578;28;20047;-55
2021/12/27 06:20:29;;;;;;;126.88;6.90;;;;;;;5.90;85.24;98043.91;4968491;28;20428;-52
2021/12/27 06:22:58;;;;;;;195.48;7.80;;;;;;;5.91;84.95;98046.47;4968699;28;20522;-51
2021/12/27 06:25:25;;;;;;;131.50;5.75;;;;;;;5.89;84.37;98043.09;4966737;28;20050;-48
2021/12/27 06:27:52;;;;;;;141.60;5.60;;;;;;;5.90;85.08;98042.22;4967840;28;21390;-51
2021/12/27 06:30:20;;;;;;;133.23;6.72;;;;;;;5.89;85.18;98043.09;4968198;28;20082;-51
2021/12/27 06:32:47;;;;;;;162.82;7.03;;;;;;;5.90;85.87;98043.91;4964919;28;20069;-52
2021/12/27 06:35:16;;;;;;;161.73;5.97;;;;;;;5.89;84.69;98043.09;4968517;28;20109;-53
2021/12/27 06:37:44;;;;;;;133.10;6.65;;;;;;;5.89;86.12;98032.81;4967435;28;20122;-49
2021/12/27 06:40:12;;;;;;;151.00;6.53;;;;;;;5.89;85.86;98037.97;4965654;28;20050;-51
2021/12/27 06:42:39;;;;;;;125.65;5.88;;;;;;;5.90;84.84;98024.22;4969572;28;20047;-50
2021/12/27 06:45:06;;;;;;;168.07;6.45;;;;;;;5.88;85.11;98023.38;4968223;28;20050;-49
2021/12/27 06:47:33;;;;;;;133.43;6.30;;;;;;;5.89;85.97;98027.69;4965338;28;20058;-49
2021/12/27 06:49:59;;;;;;;131.18;5.47;;;;;;;5.89;85.53;98026.81;4966240;28;20097;-49
2021/12/27 06:52:26;;;;;;;131.20;5.75;;;;;;;5.89;85.27;98024.25;4964028;28;20054;-54
2021/12/27 06:54:53;;;;;;;141.48;6.07;;;;;;;5.87;85.40;98014.00;4962305;28;20062;-51
2021/12/27 06:57:28;;;;;;;145.98;6.30;;;;;;;5.88;85.35;98022.56;4966502;28;20050;-52
2021/12/27 06:59:56;;;;;;;130.95;6.00;;;;;;;5.83;84.83;98017.50;4964300;28;20117;-53
2021/12/27 07:02:24;;;;;;;109.63;4.78;;;;;;;5.88;85.27;98007.97;4966085;28;20074;-55
2021/12/27 07:04:50;;;;;;;142.45;6.50;;;;;;;5.92;85.53;98007.03;4966826;28;20078;-54
2021/12/27 07:07:19;;;;;;;106.45;5.00;;;;;;;5.89;85.68;98009.69;4967789;28;20050;-52
2021/12/27 07:09:45;;;;;;;103.78;5.68;;;;;;;5.90;85.17;97997.66;4966036;28;20055;-50
2021/12/27 07:12:12;;;;;;;161.57;6.03;;;;;;;5.92;85.92;97985.66;4965731;28;20042;-49
2021/12/27 07:14:40;;;;;;;97.18;5.07;;;;;;;5.95;85.78;97995.91;4966609;28;20101;-52
2021/12/27 07:17:06;;;;;;;142.48;6.25;;;;;;;5.96;85.24;97986.44;4968490;28;20538;-52
2021/12/27 07:19:33;;;;;;;100.25;5.28;;;;;;;5.97;85.73;97989.00;4963589;28;20112;-51
2021/12/27 07:21:59;;;;;;;114.25;5.70;;;;;;;5.99;85.74;97986.41;4967288;28;20050;-51
2021/12/27 07:24:26;;;;;;;77.70;4.30;;;;;;;6.00;85.14;97970.94;4965466;28;20051;-49
2021/12/27 07:26:53;;;;;;;102.72;5.35;;;;;;;6.03;84.99;97978.66;4968599;28;20505;-54
2021/12/27 07:29:20;;;;;;;159.65;6.53;;;;;;;6.05;84.16;97976.06;4966409;28;20654;-51
2021/12/27 07:31:48;;;;;;;60.60;4.50;;;;;;;6.06;84.34;97972.59;4968110;28;20073;-51
2021/12/27 07:34:19;;;;;;;59.80;4.85;;;;;;;6.03;85.45;97972.63;4962596;28;20487;-49
2021/12/27 07:36:46;;;;;;;24.48;3.30;;;;;;;6.02;85.62;97966.63;4965741;28;20050;-52
2021/12/27 07:39:14;;;;;;;20.98;3.00;;;;;;;6.03;84.85;97967.47;4968807;28;20049;-56
2021/12/27 07:41:41;;;;;;;25.83;4.22;;;;;;;6.01;85.36;97964.94;4966415;28;20117;-53
2021/12/27 07:44:08;;;;;;;22.55;4.10;;;;;;;5.99;84.36;97960.69;4966561;28;20104;-54
2021/12/27 07:46:35;;;;;;;30.48;3.83;;;;;;;6.02;85.62;97960.66;4969295;28;20062;-51
2021/12/27 07:49:02;;;;;;;22.15;3.22;;;;;;;5.98;84.91;97959.84;4966694;28;20051;-51
2021/12/27 07:51:29;;;;;;;19.20;2.40;;;;;;;5.98;84.68;97951.31;4967050;28;20050;-51
2021/12/27 07:53:56;;;;;;;12.82;3.13;;;;;;;5.99;85.39;97945.28;4966936;28;20051;-49
2021/12/27 07:56:22;;;;;;;24.98;3.38;;;;;;;5.97;84.71;97942.72;4963407;28;20055;-50
2021/12/27 07:58:49;;;;;;;22.98;3.08;;;;;;;5.99;84.92;97940.13;4969756;28;20389;-50
2021/12/27 08:01:16;;;;;;;29.20;4.13;;;;;;;6.02;84.17;97947.81;4967722;28;20090;-49
2021/12/27 08:03:44;;;;;;;24.33;3.80;;;;;;;6.02;84.57;97958.91;4965222;28;20087;-50
2021/12/27 08:06:11;;;;;;;21.35;3.75;;;;;;;6.03;83.79;97954.63;4966564;28;20046;-51
2021/12/27 08:08:38;;;;;;;30.75;4.07;;;;;;;6.05;83.66;97960.63;4965714;28;20097;-53
2021/12/27 08:11:05;;;;;;;21.33;3.10;;;;;;;6.02;84.01;97950.38;4960711;28;20718;-53
2021/12/27 08:13:32;;;;;;;26.35;3.25;;;;;;;6.02;85.61;97952.94;4962084;28;20558;-53
2021/12/27 08:15:59;;;;;;;21.00;3.08;;;;;;;6.02;84.97;97956.34;4965353;28;20043;-46
2021/12/27 08:18:25;;;;;;;18.98;3.22;;;;;;;6.01;85.13;97948.69;4964109;28;20475;-51
2021/12/27 08:20:52;;;;;;;24.73;4.93;;;;;;;5.97;85.62;97947.00;4963358;28;20650;-49
2021/12/27 08:23:18;;;;;;;17.50;3.60;;;;;;;5.97;85.45;97944.44;4966416;28;20101;-50
2021/12/27 08:25:45;;;;;;;24.95;3.53;;;;;;;6.00;83.88;97949.53;4962672;28;20050;-47
2021/12/27 08:28:12;;;;;;;32.03;4.40;;;;;;;5.99;85.58;97950.41;4965067;28;20050;-53
2021/12/27 08:30:40;;;;;;;34.17;3.97;;;;;;;5.99;84.50;97955.56;4965708;28;20050;-50
2021/12/27 08:33:06;;;;;;;32.33;3.42;;;;;;;5.99;85.68;97955.56;4965002;28;20372;-47
2021/12/27 08:35:35;;;;;;;29.42;5.03;;;;;;;6.00;84.79;97958.09;4964839;28;20043;-51
2021/12/27 08:38:02;;;;;;;26.98;4.00;;;;;;;6.02;84.75;97951.19;4970759;28;20069;-54
2021/12/27 08:40:29;;;;;;;27.85;4.50;;;;;;;6.02;85.26;97955.50;4968193;28;20055;-49
2021/12/27 08:42:55;;;;;;;30.23;5.40;;;;;;;6.04;84.75;97954.63;4970400;28;20051;-49
2021/12/27 08:45:22;;;;;;;24.20;3.80;;;;;;;6.06;85.05;97962.31;4964794;28;20499;-51
2021/12/27 08:47:49;;;;;;;31.67;4.25;;;;;;;6.06;85.61;97970.03;4963901;28;20055;-47
2021/12/27 08:50:17;;;;;;;34.03;5.57;;;;;;;6.07;85.44;97973.44;4966238;28;20487;-52
2021/12/27 08:52:45;;;;;;;34.80;4.25;;;;;;;6.02;84.31;97965.78;4965372;28;20043;-50
2021/12/27 08:55:12;;;;;;;27.83;4.15;;;;;;;6.03;85.54;97967.47;4969854;28;20487;-49
2021/12/27 08:57:39;;;;;;;27.52;4.10;;;;;;;6.02;84.28;97958.91;4984595;28;20047;-50
2021/12/27 09:00:08;;;;;;;26.13;4.57;;;;;;;6.06;85.13;97957.19;4965591;28;20509;-55
2021/12/27 09:02:36;;;;;;;20.38;3.67;;;;;;;6.09;84.46;97951.13;4967451;28;20110;-50
2021/12/27 09:05:04;;;;;;;26.98;4.50;;;;;;;6.08;84.81;97954.59;4965688;28;20047;-54
2021/12/27 09:07:31;;;;;;;26.00;4.40;;;;;;;6.07;84.43;97942.59;4967301;28;20058;-52
2021/12/27 09:09:57;;;;;;;28.42;5.35;;;;;;;6.10;85.24;97940.81;4969256;28;20046;-50
2021/12/27 09:12:24;;;;;;;34.38;5.75;;;;;;;6.12;84.51;97943.38;4969753;28;20078;-53
2021/12/27 09:14:51;;;;;;;26.88;4.38;;;;;;;6.12;85.63;97933.91;4969179;28;20491;-49
2021/12/27 09:17:18;;;;;;;38.42;5.13;;;;;;;6.15;84.52;97923.59;4971442;28;20112;-49
2021/12/27 09:19:45;;;;;;;37.50;5.88;;;;;;;6.15;84.31;97915.88;4967958;28;20101;-50
2021/12/27 09:22:13;;;;;;;25.30;4.47;;;;;;;6.13;85.44;97922.78;4965883;28;20114;-52
2021/12/27 09:24:40;;;;;;;24.10;4.50;;;;;;;6.13;85.24;97922.78;4968253;28;20054;-54
2021/12/27 09:27:07;;;;;;;28.10;4.72;;;;;;;6.16;84.80;97930.44;4968394;28;20502;-51
2021/12/27 09:29:34;;;;;;;30.10;3.92;;;;;;;6.17;85.29;97928.69;4968906;28;20047;-50
2021/12/27 09:32:00;;;;;;;24.42;4.18;;;;;;;6.17;85.12;97934.69;4965002;28;20066;-50
2021/12/27 09:34:27;;;;;;;26.75;4.75;;;;;;;6.19;85.73;97933.81;4968986;28;20058;-50
2021/12/27 09:36:54;;;;;;;21.95;3.92;;;;;;;6.17;85.16;97924.41;4966371;28;20046;-47
2021/12/27 09:39:20;;;;;;;30.42;4.97;;;;;;;6.19;86.01;97929.53;4967624;28;20043;-48
2021/12/27 09:41:47;;;;;;;23.45;4.65;;;;;;;6.20;84.83;97920.06;4966909;28;20043;-53
2021/12/27 09:44:13;;;;;;;39.85;4.75;;;;;;;6.22;85.46;97926.91;4969505;28;20050;-53
2021/12/27 09:46:41;;;;;;;29.17;4.80;;;;;;;6.25;85.79;97916.53;4966973;28;20067;-49
2021/12/27 09:49:12;;;;;;;22.17;3.85;;;;;;;6.27;85.19;97924.22;4968433;28;20077;-49
2021/12/27 09:51:41;;;;;;;34.67;3.92;;;;;;;6.28;84.97;97920.78;4964711;28;20149;-52
2021/12/27 09:54:08;;;;;;;25.83;4.65;;;;;;;6.30;84.91;97909.59;4970565;28;20133;-54
2021/12/27 09:56:35;;;;;;;29.60;4.55;;;;;;;6.30;85.46;97909.59;4969588;28;20096;-53
2021/12/27 09:59:03;;;;;;;40.28;5.63;;;;;;;6.34;86.20;97904.38;4967221;28;20714;-51
2021/12/27 10:01:30;;;;;;;28.55;4.45;;;;;;;6.35;85.47;97904.34;4967930;28;20054;-53
2021/12/27 10:04:00;;;;;;;29.70;5.05;;;;;;;6.34;86.27;97905.22;4964376;28;20042;-53
2021/12/27 10:06:28;;;;;;;25.35;4.00;;;;;;;6.38;86.21;97899.16;4966955;28;20067;-54
2021/12/27 10:08:58;;;;;;;26.65;4.47;;;;;;;6.41;86.21;97893.09;4967818;28;20051;-51
2021/12/27 10:11:31;;;;;;;23.15;3.47;;;;;;;6.40;85.06;97899.97;4966929;28;20046;-54
2021/12/27 10:14:20;;;;;;;22.38;4.65;;;;;;;6.45;86.72;97896.47;4965983;28;20553;-55
2021/12/27 10:16:52;;;;;;;23.73;4.57;;;;;;;6.45;85.58;97892.16;4969718;28;20078;-53
2021/12/27 10:19:21;;;;;;;30.58;4.80;;;;;;;6.50;86.00;97894.63;4967182;28;20059;-52
2021/12/27 10:21:51;;;;;;;36.88;6.25;;;;;;;6.52;85.16;97887.75;4970086;28;20046;-52
2021/12/27 10:24:27;;;;;;;31.75;5.00;;;;;;;6.56;85.00;97886.81;4966408;28;20070;-51
2021/12/27 10:26:56;;;;;;;31.83;5.50;;;;;;;6.58;86.19;97881.63;4967776;28;20058;-49
2021/12/27 10:29:27;;;;;;;26.60;4.78;;;;;;;6.57;86.75;97875.63;4968349;28;20047;-53
2021/12/27 10:32:16;;;;;;;30.30;5.28;;;;;;;6.58;86.69;97867.03;4966797;28;20125;-53
2021/12/27 10:34:46;;;;;;;24.27;4.10;;;;;;;6.58;86.00;97861.06;4966191;28;20061;-51
2021/12/27 10:37:18;;;;;;;27.10;4.15;;;;;;;6.61;85.28;97856.66;4968122;28;20054;-54
2021/12/27 10:40:06;;;;;;;36.22;5.38;;;;;;;6.58;85.25;97851.59;4960639;28;20132;-47
2021/12/27 10:42:37;;;;;;;32.17;5.18;;;;;;;6.61;85.28;97851.53;4949427;28;20055;-49
2021/12/27 10:45:07;;;;;;;34.72;6.55;;;;;;;6.62;86.40;97850.63;4966798;28;20471;-50
2021/12/27 10:47:44;;;;;;;33.70;5.32;;;;;;;6.67;86.00;97845.41;4966180;28;20078;-51
2021/12/27 10:50:14;;;;;;;25.58;4.93;;;;;;;6.63;86.04;97842.06;4966797;28;20055;-50
2021/12/27 10:52:44;;;;;;;29.27;5.93;;;;;;;6.69;85.16;97839.34;4967019;28;20051;-49
2021/12/27 10:55:12;;;;;;;25.85;4.63;;;;;;;6.67;86.43;97830.81;4965053;28;20051;-52
2021/12/27 10:57:39;;;;;;;33.20;5.22;;;;;;;6.72;86.16;97832.44;4964741;28;20074;-51
2021/12/27 11:00:18;;;;;;;31.50;4.85;;;;;;;6.73;85.58;97826.41;4940007;28;20047;-52
2021/12/27 11:02:45;;;;;;;40.63;7.18;;;;;;;6.77;86.34;97820.31;4942901;28;20136;-48
2021/12/27 11:05:14;;;;;;;24.65;5.18;;;;;;;6.75;85.67;97809.22;4944776;28;20719;-53
2021/12/27 11:07:42;;;;;;;29.90;5.05;;;;;;;6.77;86.59;97817.72;4944522;28;20105;-52
2021/12/27 11:10:09;;;;;;;24.10;5.88;;;;;;;6.78;85.68;97809.13;4945267;28;20360;-56
2021/12/27 11:12:37;;;;;;;35.85;6.07;;;;;;;6.79;85.82;97801.38;4945535;28;20109;-54
2021/12/27 11:15:09;;;;;;;26.25;5.00;;;;;;;6.81;85.76;97796.19;4945226;28;20051;-53
2021/12/27 11:17:38;;;;;;;37.80;6.85;;;;;;;6.83;85.15;97789.28;4941520;28;20090;-54
2021/12/27 11:20:08;;;;;;;28.73;6.30;;;;;;;6.86;85.60;97789.19;4944894;28;20114;-51
2021/12/27 11:22:36;;;;;;;;;;;;;;;6.81;86.06;97780.75;4946132;28;20697;-54
2021/12/27 11:25:06;;;;;;;29.58;5.85;;;;;;;6.87;85.62;97780.63;4948515;28;19926;-50
2021/12/27 11:27:35;;;;;;;42.67;6.45;;;;;;;6.88;86.36;97774.59;4943682;29;20500;-50
2021/12/27 11:30:09;;;;;;;41.38;7.03;;;;;;;6.92;86.39;97773.63;4946243;28;20051;-50
2021/12/27 11:33:15;;;;;;;29.08;6.25;;;;;;;6.89;85.49;97765.97;4945077;28;20054;-53
2021/12/27 11:36:04;;;;;;;27.55;5.80;;;;;;;6.97;86.37;97764.94;4946290;28;20443;-51